Flight Track Log - Related Links

Times and Time Zones

All times are in EDT time to prevent confusion due to time zone crossing. See the GPD95 flight status page for this flight to view local times or setup timezone preferences in your user account.

Time Position Orientation Groundspeed Altitude Reporting Facility
EDT Latitude Longitude Course Direction KTS MPH feet Rate Location/Type
Mon 06:14:58 AM 41.3311 -70.8919 259° West 126 145 3,800  Level Boston Center
Mon 06:15:59 AM 41.3233 -70.9447 259° West 138 159 4,200 378 Climbing Boston Center
Mon 06:17:05 AM 41.3158 -71.0031 260° West 144 166 4,600 283 Climbing Boston Center
Mon 06:18:06 AM 41.3083 -71.0556 259° West 148 170 4,800 98 Climbing Boston Center
Mon 06:19:07 AM 41.3006 -71.1111 259° West 156 180 4,800 149 Level Boston Center
Mon 06:20:07 AM 41.2950 -71.1692 263° West 154 177 5,100 248 Climbing Boston Center
Mon 06:21:08 AM 41.2872 -71.2247 259° West 149 171 5,300 246 Climbing Boston Center
Mon 06:22:09 AM 41.2814 -71.2772 262° West 147 169 5,600 298 Climbing Boston Center
Mon 06:23:09 AM 41.2633 -71.3300 246° West 150 173 5,900 261 Climbing Boston Center
Mon 06:24:04 AM 41.2553 -71.3769 257° West 147 169 6,100 298 Climbing Boston Center
Mon 06:25:10 AM 41.2475 -71.4353 260° West 143 165 6,500 189 Climbing Boston Center
Mon 06:26:11 AM 41.2419 -71.4906 262° West 147 169 6,500  Level Boston Center
Mon 06:27:12 AM 41.2339 -71.5458 259° West 151 174 6,500  Level Boston Center
Mon 06:29:00 AM 41.2234 -71.6198 259° West  Level Estimated
Mon 06:36:00 AM 41.1824 -71.9070 259° West  Level Estimated
Mon 06:37:00 AM 41.1765 -71.9480 259° West  Level Estimated
Mon 06:38:00 AM 41.1706 -71.9890 259° West  Level Estimated
Mon 06:39:00 AM 41.1646 -72.0300 259° West  Level Estimated
Mon 06:40:00 AM 41.1586 -72.0710 259° West  Level Estimated
Mon 06:41:00 AM 41.1526 -72.1119 259° West  Level Estimated
Mon 06:42:00 AM 41.1520 -72.1541 269° West  Level FlightAware Approximate
Mon 06:43:00 AM 41.1512 -72.1962 269° West  Level FlightAware Approximate
Mon 06:44:00 AM 41.1505 -72.2383 269° West  Level FlightAware Approximate
Mon 06:45:00 AM 41.1441 -72.2796 239° Southwest  Level Estimated
Mon 06:46:00 AM 41.1278 -72.3158 239° Southwest  Level FlightAware Approximate
Mon 06:47:00 AM 41.1116 -72.3520 239° Southwest  Level FlightAware Approximate
Mon 06:48:00 AM 41.0953 -72.3882 239° Southwest  Level FlightAware Approximate
Mon 06:49:00 AM 41.0791 -72.4244 239° Southwest  Level FlightAware Approximate
Mon 06:50:00 AM 41.0628 -72.4605 239° Southwest  Level FlightAware Approximate
Mon 06:51:00 AM 41.0465 -72.4967 239° Southwest  Level FlightAware Approximate
Mon 06:52:00 AM 41.0302 -72.5328 239° Southwest  Level FlightAware Approximate
Mon 06:53:00 AM 41.0139 -72.5689 239° Southwest  Level FlightAware Approximate
Mon 06:54:00 AM 40.9976 -72.6049 239° Southwest  Level FlightAware Approximate
Mon 06:55:00 AM 40.9813 -72.6410 239° Southwest  Level FlightAware Approximate
Mon 06:56:00 AM 40.9650 -72.6770 239° Southwest  Level FlightAware Approximate
Mon 06:57:00 AM 40.9486 -72.7131 239° Southwest  Level FlightAware Approximate
Mon 06:58:00 AM 40.9323 -72.7491 239° Southwest  Level FlightAware Approximate
Mon 06:59:00 AM 40.9299 -72.7910 266° West  Level Estimated
Mon 07:00:00 AM 40.9269 -72.8328 265° West  Level FlightAware Approximate
Mon 07:01:00 AM 40.9238 -72.8746 265° West  Level FlightAware Approximate
Mon 07:02:00 AM 40.9208 -72.9164 265° West  Level FlightAware Approximate
Mon 07:03:00 AM 40.9178 -72.9582 265° West  Level FlightAware Approximate
Mon 07:04:00 AM 40.9147 -73.0000 264° West  Level FlightAware Approximate
Mon 07:05:00 AM 40.9116 -73.0418 264° West  Level FlightAware Approximate
Mon 07:06:00 AM 40.9085 -73.0836 264° West  Level FlightAware Approximate
Mon 07:07:00 AM 40.9054 -73.1254 264° West  Level FlightAware Approximate
Mon 07:08:00 AM 40.9023 -73.1672 264° West  Level FlightAware Approximate
Mon 07:09:00 AM 40.8992 -73.2090 264° West  Level FlightAware Approximate
Mon 07:10:00 AM 40.8960 -73.2508 264° West  Level FlightAware Approximate
Mon 07:11:00 AM 40.8928 -73.2925 264° West  Level FlightAware Approximate
Mon 07:12:00 AM 40.8897 -73.3343 264° West  Level FlightAware Approximate
Mon 07:13:00 AM 40.8865 -73.3761 264° West  Level FlightAware Approximate
Mon 07:14:00 AM 40.8843 -73.4180 270° West  Level Estimated
Mon 07:15:00 AM 40.8838 -73.4599 269° West  Level FlightAware Approximate
Mon 07:16:00 AM 40.8816 -73.5018 270° West  Level Estimated
Mon 07:17:00 AM 40.8744 -73.5524 252° West  Level FlightAware Approximate
Mon 07:18:00 AM 40.8667 -73.5928 270° West  Level FlightAware Approximate
Mon 07:19:00 AM 40.8667 -73.6347 270° West  Level FlightAware Approximate
Mon 07:20:00 AM 40.8667 -73.6767 270° West  Level FlightAware Approximate
Mon 07:21:00 AM 40.8664 -73.7186 259° West  Level FlightAware Approximate
Mon 07:22:00 AM 40.8605 -73.7599 259° West  Level FlightAware Approximate
Mon 07:23:00 AM 40.8546 -73.8011 259° West  Level FlightAware Approximate
Mon 07:24:00 AM 40.8500 -73.8425 270° West  Level FlightAware Approximate
Mon 07:25:00 AM 40.8500 -73.8845 270° West  Level FlightAware Approximate
Mon 07:26:00 AM 40.8500 -73.9264 270° West  Level FlightAware Approximate
Mon 07:27:00 AM 40.8500 -73.9684 270° West  Level FlightAware Approximate
Mon 07:28:00 AM 40.8500 -74.0103 270° West  Level FlightAware Approximate
Mon 07:29:00 AM 40.8500 -74.0500 270° West  Level FlightAware Approximate
Mon 07:30:00 AM 40.8501 -74.0608 270° West  Level Estimated
Mon 07:31:00 AM 40.8501 -74.0608 270° West  Level Estimated
Mon 07:32:00 AM 40.8501 -74.0608 270° West  Level Estimated
Mon 07:33:00 AM 40.8501 -74.0608 270° West  Level Estimated
Mon 07:34:00 AM 40.8501 -74.0608 270° West  Level Estimated
Mon 07:35:00 AM 40.8501 -74.0608 270° West  Level Estimated
Mon 07:36:00 AM 40.8501 -74.0608 270° West  Level Estimated
Mon 07:37:00 AM 40.8501 -74.0608 270° West  Level Estimated
Mon 07:38:00 AM 40.8501 -74.0608 270° West  Level Estimated
Mon 07:39:00 AM 40.8501 -74.0608 270° West  Level Estimated
Mon 07:40:00 AM 40.8501 -74.0608 270° West  Level Estimated
Mon 07:41:00 AM 40.8501 -74.0608 270° West  Level Estimated
Mon 07:42:00 AM 40.8501 -74.0608 270° West  Level Estimated
Mon 07:43:00 AM 40.8501 -74.0608 270° West  Level Estimated
Mon 07:44:00 AM 40.8501 -74.0608 270° West  Level Estimated
Mon 07:45:00 AM 40.8501 -74.0608 270° West  Level Estimated
Mon 07:46:00 AM 40.8501 -74.0608 270° West  Level Estimated
Mon 07:47:00 AM 40.8501 -74.0608 270° West  Level Estimated

Login

Don't have an account? Register now (free) for customized features, flight alerts, and more!